createdAt,value
2019-03-05T00:00:18.086Z,0
2019-03-05T00:01:19.477Z,0
2019-03-05T00:02:21.009Z,0
2019-03-05T00:03:22.405Z,0
2019-03-05T00:04:23.895Z,0
2019-03-05T00:05:25.291Z,0
2019-03-05T00:06:26.775Z,0
2019-03-05T00:07:28.173Z,0
2019-03-05T00:08:29.655Z,0
2019-03-05T00:09:31.047Z,0
2019-03-05T00:10:32.539Z,0
2019-03-05T00:11:33.933Z,0
2019-03-05T00:12:35.336Z,0
2019-03-05T00:13:36.860Z,0
2019-03-05T00:14:38.251Z,0
2019-03-05T00:15:39.641Z,0
2019-03-05T00:16:41.178Z,0
2019-03-05T00:17:42.573Z,0
2019-03-05T00:18:44.031Z,0
2019-03-05T00:19:45.499Z,0
2019-03-05T00:20:46.900Z,0
2019-03-05T00:21:48.297Z,0
2019-03-05T00:22:49.821Z,0
2019-03-05T00:23:51.215Z,0
2019-03-05T00:24:52.704Z,0
2019-03-05T00:25:54.120Z,0
2019-03-05T00:26:55.583Z,0
2019-03-05T00:27:56.983Z,0
2019-03-05T00:28:58.379Z,0
2019-03-05T00:29:59.904Z,0
2019-03-05T00:31:01.298Z,0
2019-03-05T00:32:02.692Z,0
2019-03-05T00:33:04.224Z,0
2019-03-05T00:34:05.620Z,0
2019-03-05T00:35:07.050Z,0
2019-03-05T00:36:08.752Z,0
2019-03-05T00:37:10.167Z,0
2019-03-05T00:38:11.560Z,0
2019-03-05T00:39:13.080Z,0
2019-03-05T00:40:14.467Z,0
2019-03-05T00:41:15.898Z,0
2019-03-05T00:42:17.397Z,0
2019-03-05T00:43:18.790Z,0
2019-03-05T00:44:20.278Z,0
2019-03-05T00:45:21.668Z,0
2019-03-05T00:46:23.159Z,0
2019-03-05T00:47:24.553Z,0
2019-03-05T00:48:25.948Z,0
2019-03-05T00:49:27.476Z,0
2019-03-05T00:50:28.878Z,0
2019-03-05T00:51:30.277Z,0
2019-03-05T00:52:31.800Z,0
2019-03-05T00:53:33.193Z,0
2019-03-05T00:54:34.592Z,0
2019-03-05T00:55:36.123Z,0
2019-03-05T00:56:37.519Z,0
2019-03-05T00:57:38.920Z,0
2019-03-05T00:58:40.449Z,0
2019-03-05T00:59:41.838Z,0
2019-03-05T01:00:43.228Z,0
2019-03-05T01:01:46.588Z,0
2019-03-05T01:02:46.129Z,0
2019-03-05T01:03:47.523Z,0
2019-03-05T01:04:49.089Z,0
2019-03-05T01:05:50.495Z,0
2019-03-05T01:06:51.970Z,0
2019-03-05T01:07:53.362Z,0
2019-03-05T01:08:54.856Z,0
2019-03-05T01:09:56.248Z,0
2019-03-05T01:10:57.733Z,0
2019-03-05T01:11:59.128Z,0
2019-03-05T01:13:00.615Z,0
2019-03-05T01:14:02.020Z,0
2019-03-05T01:15:03.413Z,0
2019-03-05T01:16:04.937Z,0
2019-03-05T01:17:06.342Z,0
2019-03-05T01:18:07.735Z,0
2019-03-05T01:19:09.253Z,0
2019-03-05T01:20:10.661Z,0
2019-03-05T01:21:12.133Z,0
2019-03-05T01:22:13.527Z,0
2019-03-05T01:23:15.017Z,0
2019-03-05T01:24:16.415Z,0
2019-03-05T01:25:17.896Z,0
2019-03-05T01:26:19.295Z,0
2019-03-05T01:27:20.840Z,0
2019-03-05T01:28:22.228Z,0
2019-03-05T01:29:23.619Z,0
2019-03-05T01:30:25.099Z,0
2019-03-05T01:31:26.501Z,0
2019-03-05T01:32:27.900Z,0
2019-03-05T01:33:29.422Z,0
2019-03-05T01:34:30.810Z,0
2019-03-05T01:35:32.201Z,0
2019-03-05T01:36:33.744Z,0
2019-03-05T01:37:35.130Z,0
2019-03-05T01:38:36.533Z,0
2019-03-05T01:39:38.059Z,0
2019-03-05T01:40:39.453Z,0
2019-03-05T01:41:40.913Z,0
2019-03-05T01:42:42.392Z,0
2019-03-05T01:43:43.805Z,0
2019-03-05T01:44:45.197Z,0
2019-03-05T01:45:46.702Z,0
2019-03-05T01:46:48.100Z,0
2019-03-05T01:47:49.583Z,0
2019-03-05T01:48:50.983Z,0
2019-03-05T01:49:52.463Z,0
2019-03-05T01:50:53.888Z,0
2019-03-05T01:51:55.352Z,0
2019-03-05T01:52:56.752Z,0
2019-03-05T01:53:58.226Z,0
2019-03-05T01:54:59.623Z,0
2019-03-05T01:56:01.111Z,0
2019-03-05T01:57:02.499Z,0
2019-03-05T01:58:03.992Z,0
2019-03-05T01:59:05.379Z,0
2019-03-05T02:00:06.884Z,0
2019-03-05T02:01:08.281Z,0
2019-03-05T02:02:09.762Z,0
2019-03-05T02:03:11.158Z,0
2019-03-05T02:04:12.604Z,0
2019-03-05T02:05:14.086Z,0
2019-03-05T02:06:15.507Z,0
2019-03-05T02:07:16.902Z,0
2019-03-05T02:08:18.393Z,0
2019-03-05T02:09:19.787Z,0
2019-03-05T02:10:21.185Z,0
2019-03-05T02:11:22.783Z,0
2019-03-05T02:12:24.174Z,0
2019-03-05T02:13:25.800Z,0
2019-03-05T02:14:27.195Z,0
2019-03-05T02:15:28.589Z,0
2019-03-05T02:16:30.141Z,0
2019-03-05T02:17:31.535Z,0
2019-03-05T02:18:32.940Z,0
2019-03-05T02:19:34.444Z,0
2019-03-05T02:20:35.834Z,0
2019-03-05T02:21:37.323Z,0
2019-03-05T02:22:38.775Z,0
2019-03-05T02:23:40.410Z,0
2019-03-05T02:24:41.806Z,0
2019-03-05T02:25:43.196Z,0
2019-03-05T02:26:44.730Z,0
2019-03-05T02:27:46.125Z,0
2019-03-05T02:28:47.529Z,0
2019-03-05T02:29:49.054Z,0
2019-03-05T02:30:50.457Z,0
2019-03-05T02:31:51.934Z,0
2019-03-05T02:32:53.331Z,0
2019-03-05T02:33:54.815Z,0
2019-03-05T02:34:56.212Z,0
2019-03-05T02:35:57.853Z,0
2019-03-05T02:36:59.256Z,0
2019-03-05T02:38:00.780Z,0
2019-03-05T02:39:02.240Z,0
2019-03-05T02:40:03.676Z,0
2019-03-05T02:41:05.074Z,0
2019-03-05T02:42:06.556Z,0
2019-03-05T02:43:07.937Z,0
2019-03-05T02:44:09.329Z,0
2019-03-05T02:45:10.900Z,0
2019-03-05T02:46:12.291Z,0
2019-03-05T02:47:13.697Z,0
2019-03-05T02:48:15.189Z,0
2019-03-05T02:49:16.580Z,0
2019-03-05T02:50:17.995Z,0
2019-03-05T02:51:19.515Z,0
2019-03-05T02:52:20.904Z,0
2019-03-05T02:53:22.297Z,0
2019-03-05T02:54:23.828Z,0
2019-03-05T02:55:25.224Z,0
2019-03-05T02:56:26.618Z,0
2019-03-05T02:57:28.223Z,0
2019-03-05T02:58:29.572Z,0
2019-03-05T02:59:30.980Z,0
2019-03-05T03:00:32.472Z,0
2019-03-05T03:01:33.878Z,0
2019-03-05T03:02:35.353Z,0
2019-03-05T03:03:36.751Z,0
2019-03-05T03:04:38.233Z,0
2019-03-05T03:05:39.638Z,0
2019-03-05T03:06:41.116Z,0
2019-03-05T03:07:42.510Z,0
2019-03-05T03:08:43.994Z,0
2019-03-05T03:09:45.390Z,0
2019-03-05T03:10:46.787Z,0
2019-03-05T03:11:48.328Z,0
2019-03-05T03:12:49.715Z,0
2019-03-05T03:13:51.128Z,0
2019-03-05T03:14:52.644Z,0
2019-03-05T03:15:54.036Z,0
2019-03-05T03:16:55.521Z,0
2019-03-05T03:17:56.927Z,0
2019-03-05T03:18:58.401Z,0
2019-03-05T03:19:59.832Z,0
2019-03-05T03:21:01.232Z,0
2019-03-05T03:22:02.722Z,0
2019-03-05T03:23:04.114Z,0
2019-03-05T03:24:05.506Z,0
2019-03-05T03:25:07.044Z,0
2019-03-05T03:26:08.437Z,0
2019-03-05T03:27:09.828Z,0
2019-03-05T03:28:11.372Z,0
2019-03-05T03:29:12.760Z,0
2019-03-05T03:30:14.154Z,0
2019-03-05T03:31:15.696Z,0
2019-03-05T03:32:17.087Z,0
2019-03-05T03:33:18.577Z,0
2019-03-05T03:34:20.011Z,0
2019-03-05T03:35:21.414Z,0
2019-03-05T03:36:22.809Z,0
2019-03-05T03:37:24.338Z,0
2019-03-05T03:38:25.737Z,0
2019-03-05T03:39:27.216Z,0
2019-03-05T03:40:28.621Z,0
2019-03-05T03:41:30.020Z,0
2019-03-05T03:42:31.531Z,0
2019-03-05T03:43:32.927Z,0
2019-03-05T03:44:34.321Z,0
2019-03-05T03:45:35.854Z,0
2019-03-05T03:46:37.248Z,0
2019-03-05T03:47:38.741Z,0
2019-03-05T03:48:40.128Z,0
2019-03-05T03:49:41.613Z,0
2019-03-05T03:50:43.129Z,0
2019-03-05T03:51:55.963Z,0
2019-03-05T03:52:57.608Z,0
2019-03-05T03:53:59.039Z,0
2019-03-05T03:55:00.448Z,0
2019-03-05T03:56:01.931Z,0
2019-03-05T03:57:03.330Z,0
2019-03-05T03:58:04.748Z,0
2019-03-05T03:59:06.252Z,0
2019-03-05T04:00:07.710Z,0
2019-03-05T04:01:09.109Z,0
2019-03-05T04:02:10.572Z,0
2019-03-05T04:03:12.006Z,0
2019-03-05T04:04:13.455Z,0
2019-03-05T04:05:14.850Z,0
2019-03-05T04:06:16.337Z,0
2019-03-05T04:07:17.729Z,0
2019-03-05T04:08:19.217Z,0
2019-03-05T04:09:20.611Z,0
2019-03-05T04:10:22.092Z,0
2019-03-05T04:11:23.493Z,0
2019-03-05T04:12:24.945Z,0
2019-03-05T04:13:26.416Z,0
2019-03-05T04:14:27.812Z,0
2019-03-05T04:15:29.226Z,0
2019-03-05T04:16:30.737Z,0
2019-03-05T04:17:32.150Z,0
2019-03-05T04:18:33.553Z,0
2019-03-05T04:19:35.058Z,0
2019-03-05T04:20:36.455Z,0
2019-03-05T04:21:37.850Z,0
2019-03-05T04:22:39.398Z,0
2019-03-05T04:23:40.795Z,0
2019-03-05T04:24:42.275Z,0
2019-03-05T04:25:43.664Z,0
2019-03-05T04:26:45.146Z,0
2019-03-05T04:27:46.539Z,0
2019-03-05T04:28:48.030Z,0
2019-03-05T04:29:49.672Z,0
2019-03-05T04:30:51.155Z,0
2019-03-05T04:31:52.550Z,0
2019-03-05T04:32:54.198Z,0
2019-03-05T04:33:55.583Z,0
2019-03-05T04:34:57.076Z,0
2019-03-05T04:35:58.467Z,0
2019-03-05T04:36:59.862Z,0
2019-03-05T04:38:01.407Z,0
2019-03-05T04:39:02.804Z,0
2019-03-05T04:40:04.199Z,0
2019-03-05T04:41:05.715Z,0
2019-03-05T04:42:07.107Z,0
2019-03-05T04:43:08.647Z,0
2019-03-05T04:44:10.038Z,0
2019-03-05T04:45:11.717Z,0
2019-03-05T04:46:13.114Z,0
2019-03-05T04:47:14.508Z,0
2019-03-05T04:48:16.006Z,0
2019-03-05T04:49:17.396Z,0
2019-03-05T04:50:18.791Z,0
2019-03-05T04:51:20.329Z,0
2019-03-05T04:52:21.729Z,0
2019-03-05T04:53:23.145Z,0
2019-03-05T04:54:24.649Z,0
2019-03-05T04:55:26.044Z,0
2019-03-05T04:56:27.440Z,0
2019-03-05T04:57:28.974Z,0
2019-03-05T04:58:30.370Z,0
2019-03-05T04:59:31.757Z,0
2019-03-05T05:00:33.295Z,0
2019-03-05T05:01:34.699Z,0
2019-03-05T05:02:36.081Z,0
2019-03-05T05:03:37.821Z,0
2019-03-05T05:04:39.210Z,0
2019-03-05T05:05:40.602Z,0
2019-03-05T05:06:42.144Z,0
2019-03-05T05:07:43.544Z,0
2019-03-05T05:08:44.926Z,0
2019-03-05T05:09:46.466Z,0
2019-03-05T05:10:47.853Z,0
2019-03-05T05:11:49.250Z,0
2019-03-05T05:12:50.790Z,0
2019-03-05T05:13:52.188Z,0
2019-03-05T05:14:53.664Z,0
2019-03-05T05:15:55.057Z,0
2019-03-05T05:16:56.543Z,0
2019-03-05T05:17:57.975Z,0
2019-03-05T05:18:59.435Z,0
2019-03-05T05:20:00.830Z,0
2019-03-05T05:21:02.214Z,0
2019-03-05T05:22:03.749Z,0
2019-03-05T05:23:05.186Z,0
2019-03-05T05:24:06.603Z,0
2019-03-05T05:25:08.067Z,0
2019-03-05T05:26:09.479Z,0
2019-03-05T05:27:10.936Z,0
2019-03-05T05:28:12.387Z,0
2019-03-05T05:29:13.778Z,0
2019-03-05T05:30:15.177Z,0
2019-03-05T05:31:16.713Z,0
2019-03-05T05:32:18.097Z,0
2019-03-05T05:33:19.495Z,0
2019-03-05T05:34:21.033Z,0
2019-03-05T05:35:22.426Z,0
2019-03-05T05:36:23.818Z,0
2019-03-05T05:37:25.353Z,0
2019-03-05T05:38:26.757Z,0
2019-03-05T05:39:28.153Z,0
2019-03-05T05:40:29.674Z,0
2019-03-05T05:41:31.072Z,0
2019-03-05T05:42:32.466Z,0
2019-03-05T05:43:34.032Z,0
2019-03-05T05:44:35.462Z,0
2019-03-05T05:45:36.819Z,0
2019-03-05T05:46:38.318Z,0
2019-03-05T05:47:39.709Z,0
2019-03-05T05:48:41.178Z,0
2019-03-05T05:49:42.637Z,0
2019-03-05T05:50:44.037Z,0
2019-03-05T05:51:45.428Z,0
2019-03-05T05:52:46.959Z,0
2019-03-05T05:53:48.350Z,0
2019-03-05T05:54:49.841Z,0
2019-03-05T05:55:51.237Z,0
2019-03-05T05:56:52.722Z,0
2019-03-05T05:57:54.116Z,0
2019-03-05T05:58:55.603Z,0
2019-03-05T05:59:56.995Z,0
2019-03-05T06:00:58.487Z,0
2019-03-05T06:01:59.876Z,0
2019-03-05T06:03:01.269Z,0
2019-03-05T06:04:02.808Z,0
2019-03-05T06:05:04.200Z,0
2019-03-05T06:06:05.598Z,0
2019-03-05T06:07:07.127Z,0
2019-03-05T06:08:08.517Z,0
2019-03-05T06:09:10.008Z,0
2019-03-05T06:10:11.400Z,0
2019-03-05T06:11:12.894Z,0
2019-03-05T06:12:14.296Z,0
2019-03-05T06:13:15.802Z,0
2019-03-05T06:14:17.190Z,0
2019-03-05T06:15:18.650Z,0
2019-03-05T06:16:20.047Z,0
2019-03-05T06:17:21.533Z,0
2019-03-05T06:18:22.923Z,0
2019-03-05T06:19:24.328Z,0
2019-03-05T06:20:25.858Z,0
2019-03-05T06:21:27.252Z,5
2019-03-05T06:22:28.640Z,5
2019-03-05T06:23:30.168Z,0
2019-03-05T06:24:31.571Z,5
2019-03-05T06:25:33.055Z,5
2019-03-05T06:26:34.449Z,5
2019-03-05T06:27:35.936Z,5
2019-03-05T06:28:37.329Z,5
2019-03-05T06:29:38.817Z,10
2019-03-05T06:30:40.207Z,10
2019-03-05T06:31:41.702Z,10
2019-03-05T06:32:43.094Z,10
2019-03-05T06:33:44.582Z,10
2019-03-05T06:34:45.982Z,15
2019-03-05T06:35:47.464Z,15
2019-03-05T06:36:48.867Z,15
2019-03-05T06:37:50.315Z,15
2019-03-05T06:38:51.786Z,15
2019-03-05T06:39:53.189Z,15
2019-03-05T06:40:54.586Z,15
2019-03-05T06:41:56.105Z,15
2019-03-05T06:42:57.504Z,15
2019-03-05T06:43:59.000Z,15
2019-03-05T06:45:00.394Z,5
2019-03-05T06:46:01.868Z,10
2019-03-05T06:47:03.259Z,10
2019-03-05T06:48:04.658Z,15
2019-03-05T06:49:06.189Z,15
2019-03-05T06:50:07.591Z,20
2019-03-05T06:51:08.982Z,20
2019-03-05T06:52:11.810Z,15
2019-03-05T06:53:11.871Z,15
2019-03-05T06:54:13.389Z,15
2019-03-05T06:55:14.789Z,10
2019-03-05T06:56:16.273Z,10
2019-03-05T06:57:17.663Z,15
2019-03-05T06:58:19.172Z,15
2019-03-05T06:59:20.626Z,20
2019-03-05T07:00:22.238Z,15
2019-03-05T07:01:23.635Z,15
2019-03-05T07:02:25.119Z,25
2019-03-05T07:03:26.515Z,25
2019-03-05T07:04:28.042Z,25
2019-03-05T07:05:29.437Z,25
2019-03-05T07:06:30.879Z,25
2019-03-05T07:07:32.279Z,25
2019-03-05T07:08:33.761Z,20
2019-03-05T07:09:35.159Z,20
2019-03-05T07:10:36.677Z,30
2019-03-05T07:11:38.077Z,25
2019-03-05T07:12:39.520Z,30
2019-03-05T07:13:40.922Z,35
2019-03-05T07:14:42.402Z,30
2019-03-05T07:15:43.800Z,25
2019-03-05T07:16:45.285Z,25
2019-03-05T07:17:46.695Z,35
2019-03-05T07:18:48.166Z,30
2019-03-05T07:19:57.617Z,35
2019-03-05T07:20:51.048Z,30
2019-03-05T07:21:52.451Z,30
2019-03-05T07:22:53.988Z,25
2019-03-05T07:23:55.326Z,30
2019-03-05T07:24:56.809Z,20
2019-03-05T07:25:58.207Z,20
2019-03-05T07:26:59.698Z,30
2019-03-05T07:28:01.098Z,20
2019-03-05T07:29:02.570Z,30
2019-03-05T07:30:03.966Z,20
2019-03-05T07:31:05.454Z,25
2019-03-05T07:32:06.850Z,25
2019-03-05T07:33:08.337Z,20
2019-03-05T07:34:09.751Z,20
2019-03-05T07:35:11.151Z,20
2019-03-05T07:36:12.663Z,25
2019-03-05T07:37:14.049Z,15
2019-03-05T07:38:15.447Z,20
2019-03-05T07:39:16.977Z,25
2019-03-05T07:40:18.366Z,25
2019-03-05T07:41:19.858Z,20
2019-03-05T07:42:21.274Z,15
2019-03-05T07:43:22.738Z,15
2019-03-05T07:44:24.129Z,15
2019-03-05T07:45:25.620Z,10
2019-03-05T07:46:27.031Z,15
2019-03-05T07:47:28.498Z,15
2019-03-05T07:48:29.893Z,15
2019-03-05T07:49:42.782Z,15
2019-03-05T07:50:32.824Z,15
2019-03-05T07:51:34.218Z,15
2019-03-05T07:52:35.677Z,15
2019-03-05T07:53:38.167Z,15
2019-03-05T07:54:39.579Z,25
2019-03-05T07:55:40.977Z,25
2019-03-05T07:56:42.518Z,20
2019-03-05T07:57:43.913Z,35
2019-03-05T07:58:45.349Z,25
2019-03-05T07:59:46.812Z,20
2019-03-05T08:00:48.210Z,30
2019-03-05T08:01:49.691Z,25
2019-03-05T08:02:51.170Z,20
2019-03-05T08:03:52.567Z,25
2019-03-05T08:04:54.012Z,25
2019-03-05T08:05:55.408Z,30
2019-03-05T08:06:56.807Z,35
2019-03-05T08:07:58.348Z,30
2019-03-05T08:08:59.782Z,35
2019-03-05T08:10:01.210Z,40
2019-03-05T08:11:02.609Z,50
2019-03-05T08:12:04.089Z,35
2019-03-05T08:13:05.489Z,35
2019-03-05T08:14:06.973Z,50
2019-03-05T08:15:08.370Z,60
2019-03-05T08:16:09.854Z,45
2019-03-05T08:17:11.250Z,45
2019-03-05T08:18:12.731Z,30
2019-03-05T08:19:14.160Z,20
2019-03-05T08:20:15.550Z,35
2019-03-05T08:21:17.056Z,40
2019-03-05T08:22:18.460Z,35
2019-03-05T08:23:19.852Z,50
2019-03-05T08:24:21.380Z,35
2019-03-05T08:25:22.776Z,50
2019-03-05T08:26:24.291Z,65
2019-03-05T08:27:25.689Z,65
2019-03-05T08:28:27.135Z,65
2019-03-05T08:29:28.540Z,60
2019-03-05T08:30:30.017Z,30
2019-03-05T08:31:31.437Z,35
2019-03-05T08:32:32.902Z,40
2019-03-05T08:33:34.299Z,55
2019-03-05T08:34:35.697Z,70
2019-03-05T08:35:37.220Z,65
2019-03-05T08:36:38.623Z,50
2019-03-05T08:37:40.018Z,45
2019-03-05T08:38:41.541Z,50
2019-03-05T08:39:42.960Z,50
2019-03-05T08:40:44.423Z,45
2019-03-05T08:41:45.822Z,50
2019-03-05T08:42:47.307Z,40
2019-03-05T08:43:48.707Z,40
2019-03-05T08:44:50.884Z,45
2019-03-05T08:45:51.606Z,40
2019-03-05T08:46:53.072Z,45
2019-03-05T08:47:55.737Z,70
2019-03-05T08:48:57.123Z,50
2019-03-05T08:49:58.621Z,45
2019-03-05T08:51:00.017Z,35
2019-03-05T08:52:01.414Z,40
2019-03-05T08:53:02.944Z,35
2019-03-05T08:54:04.340Z,40
2019-03-05T08:55:05.739Z,40
2019-03-05T08:56:07.262Z,50
2019-03-05T08:57:08.662Z,60
2019-03-05T08:58:10.061Z,75
2019-03-05T08:59:11.585Z,60
2019-03-05T09:00:12.983Z,60
2019-03-05T09:01:14.483Z,75
2019-03-05T09:02:15.880Z,90
2019-03-05T09:03:17.402Z,75
2019-03-05T09:04:18.764Z,75
2019-03-05T09:05:20.228Z,65
2019-03-05T09:06:21.624Z,50
2019-03-05T09:07:23.107Z,50
2019-03-05T09:08:24.501Z,50
2019-03-05T09:09:26.029Z,50
2019-03-05T09:10:27.421Z,45
2019-03-05T09:11:28.869Z,45
2019-03-05T09:12:30.265Z,55
2019-03-05T09:13:32.997Z,45
2019-03-05T09:14:34.520Z,40
2019-03-05T09:15:34.659Z,30
2019-03-05T09:16:36.053Z,25
2019-03-05T09:17:37.529Z,25
2019-03-05T09:18:38.929Z,20
2019-03-05T09:19:40.401Z,25
2019-03-05T09:20:41.789Z,25
2019-03-05T09:21:43.186Z,30
2019-03-05T09:22:44.588Z,30
2019-03-05T09:23:46.153Z,35
2019-03-05T09:24:47.557Z,40
2019-03-05T09:25:48.958Z,35
2019-03-05T09:26:51.463Z,60
2019-03-05T09:27:51.835Z,40
2019-03-05T09:28:53.236Z,50
2019-03-05T09:29:54.796Z,50
2019-03-05T09:30:56.219Z,55
2019-03-05T09:31:57.686Z,40
2019-03-05T09:32:59.079Z,40
2019-03-05T09:34:00.559Z,35
2019-03-05T09:35:01.974Z,45
2019-03-05T09:36:03.435Z,55
2019-03-05T09:37:04.835Z,50
2019-03-05T09:38:06.320Z,75
2019-03-05T09:39:07.719Z,80
2019-03-05T09:40:09.120Z,135
2019-03-05T09:41:10.644Z,130
2019-03-05T09:42:12.038Z,150
2019-03-05T09:43:13.506Z,175
2019-03-05T09:44:14.966Z,215
2019-03-05T09:45:16.362Z,265
2019-03-05T09:46:17.865Z,185
2019-03-05T09:47:19.274Z,210
2019-03-05T09:48:20.727Z,205
2019-03-05T09:49:22.126Z,120
2019-03-05T09:50:23.608Z,105
2019-03-05T09:51:25.010Z,100
2019-03-05T09:52:26.533Z,100
2019-03-05T09:53:28.001Z,85
2019-03-05T09:54:29.570Z,55
2019-03-05T09:55:30.974Z,45
2019-03-05T09:56:32.463Z,45
2019-03-05T09:57:33.877Z,40
2019-03-05T09:58:35.336Z,35
2019-03-05T09:59:36.776Z,35
2019-03-05T10:00:38.172Z,45
2019-03-05T10:01:39.653Z,80
2019-03-05T10:02:41.057Z,55
2019-03-05T10:03:42.448Z,35
2019-03-05T10:04:43.993Z,45
2019-03-05T10:05:45.388Z,70
2019-03-05T10:06:46.892Z,55
2019-03-05T10:07:48.289Z,80
2019-03-05T10:08:49.738Z,65
2019-03-05T10:09:51.137Z,55
2019-03-05T10:10:52.622Z,100
2019-03-05T10:11:56.838Z,70
2019-03-05T10:12:59.065Z,45
2019-03-05T10:13:56.860Z,65
2019-03-05T10:14:58.382Z,45
2019-03-05T10:15:59.784Z,40
2019-03-05T10:17:01.311Z,40
2019-03-05T10:18:12.125Z,55
2019-03-05T10:19:04.545Z,80
2019-03-05T10:20:05.784Z,55
2019-03-05T10:21:08.606Z,55
2019-03-05T10:22:10.022Z,75
2019-03-05T10:23:11.426Z,100
2019-03-05T10:24:12.984Z,155
2019-03-05T10:25:14.388Z,125
2019-03-05T10:26:18.351Z,100
2019-03-05T10:27:17.312Z,215
2019-03-05T10:28:18.709Z,180
2019-03-05T10:29:20.107Z,275
2019-03-05T10:30:24.895Z,240
2019-03-05T10:31:23.007Z,735
2019-03-05T10:32:24.511Z,235
2019-03-05T10:33:25.928Z,975
2019-03-05T10:34:27.394Z,675
2019-03-05T10:35:28.799Z,285
2019-03-05T10:36:30.247Z,175
2019-03-05T10:37:31.713Z,135
2019-03-05T10:38:33.117Z,215
2019-03-05T10:39:34.654Z,195
2019-03-05T10:40:36.066Z,250
2019-03-05T10:41:37.465Z,205
2019-03-05T10:42:41.120Z,200
2019-03-05T10:43:40.284Z,185
2019-03-05T10:44:41.689Z,215
2019-03-05T10:45:43.251Z,220
2019-03-05T10:46:44.671Z,220
2019-03-05T10:47:46.069Z,170
2019-03-05T10:48:47.475Z,185
2019-03-05T10:49:48.882Z,135
2019-03-05T10:50:50.437Z,200
2019-03-05T10:51:51.852Z,220
2019-03-05T10:52:53.320Z,265
2019-03-05T10:53:54.718Z,275
2019-03-05T10:54:56.201Z,155
2019-03-05T10:55:57.606Z,155
2019-03-05T10:56:59.014Z,200
2019-03-05T10:58:00.625Z,175
2019-03-05T10:59:02.025Z,90
2019-03-05T11:00:03.707Z,85
2019-03-05T11:01:05.139Z,105
2019-03-05T11:02:06.697Z,185
2019-03-05T11:03:08.102Z,185
2019-03-05T11:04:09.679Z,135
2019-03-05T11:05:11.086Z,85
2019-03-05T11:06:13.055Z,45
2019-03-05T11:07:14.462Z,30
2019-03-05T11:08:15.955Z,60
2019-03-05T11:09:17.347Z,75
2019-03-05T11:10:18.754Z,85
2019-03-05T11:11:20.160Z,65
2019-03-05T11:12:21.712Z,85
2019-03-05T11:13:23.157Z,75
2019-03-05T11:14:24.570Z,55
2019-03-05T11:15:26.035Z,60
2019-03-05T11:16:30.599Z,105
2019-03-05T11:17:28.807Z,140
2019-03-05T11:18:30.284Z,95
2019-03-05T11:19:31.620Z,90
2019-03-05T11:20:36.417Z,90
2019-03-05T11:21:37.879Z,105
2019-03-05T11:22:39.249Z,95
2019-03-05T11:23:40.799Z,90
2019-03-05T11:24:42.209Z,120
2019-03-05T11:25:43.613Z,80
2019-03-05T11:26:45.190Z,80
2019-03-05T11:27:46.655Z,130
2019-03-05T11:28:48.061Z,170
2019-03-05T11:29:49.461Z,155
2019-03-05T11:30:50.939Z,160
2019-03-05T11:31:52.343Z,105
2019-03-05T11:32:53.740Z,75
2019-03-05T11:33:55.259Z,140
2019-03-05T11:34:56.666Z,195
2019-03-05T11:35:58.083Z,135
2019-03-05T11:37:00.106Z,195
2019-03-05T11:38:00.943Z,240
2019-03-05T11:39:02.462Z,185
2019-03-05T11:40:03.860Z,160
2019-03-05T11:41:05.343Z,250
2019-03-05T11:42:06.799Z,205
2019-03-05T11:43:08.196Z,245
2019-03-05T11:44:09.661Z,165
2019-03-05T11:45:11.731Z,140
2019-03-05T11:46:12.466Z,195
2019-03-05T11:47:13.983Z,235
2019-03-05T11:48:15.386Z,290
2019-03-05T11:49:16.805Z,270
2019-03-05T11:50:18.304Z,225
2019-03-05T11:51:19.707Z,180
2019-03-05T11:52:21.104Z,130
2019-03-05T11:53:22.627Z,195
2019-03-05T11:54:24.029Z,225
2019-03-05T11:55:25.515Z,225
2019-03-05T11:56:26.970Z,245
2019-03-05T11:57:28.373Z,230
2019-03-05T11:58:29.829Z,145
2019-03-05T11:59:31.222Z,100
2019-03-05T12:00:32.629Z,110
2019-03-05T12:01:34.148Z,115
2019-03-05T12:02:35.552Z,165
2019-03-05T12:03:37.067Z,145
2019-03-05T12:04:38.476Z,130
2019-03-05T12:05:39.910Z,185
2019-03-05T12:06:41.316Z,150
2019-03-05T12:07:42.726Z,100
2019-03-05T12:08:44.234Z,95
2019-03-05T12:09:45.633Z,130
2019-03-05T12:10:47.094Z,120
2019-03-05T12:11:48.556Z,130
2019-03-05T12:12:49.974Z,120
2019-03-05T12:13:51.381Z,115
2019-03-05T12:14:52.881Z,215
2019-03-05T12:15:54.285Z,180
2019-03-05T12:16:55.689Z,100
2019-03-05T12:17:57.245Z,125
2019-03-05T12:18:58.653Z,180
2019-03-05T12:20:00.100Z,155
2019-03-05T12:21:01.522Z,170
2019-03-05T12:22:02.934Z,150
2019-03-05T12:23:06.630Z,125
2019-03-05T12:24:05.840Z,135
2019-03-05T12:25:07.246Z,115
2019-03-05T12:26:08.648Z,120
2019-03-05T12:27:10.163Z,135
2019-03-05T12:28:11.656Z,155
2019-03-05T12:29:12.933Z,165
2019-03-05T12:30:14.485Z,160
2019-03-05T12:31:15.905Z,95
2019-03-05T12:32:17.301Z,100
2019-03-05T12:33:18.806Z,130
2019-03-05T12:34:20.211Z,120
2019-03-05T12:35:21.688Z,120
2019-03-05T12:36:23.097Z,155
2019-03-05T12:37:24.569Z,120
2019-03-05T12:38:25.979Z,95
2019-03-05T12:39:27.449Z,85
2019-03-05T12:40:28.860Z,85
2019-03-05T12:41:30.327Z,100
2019-03-05T12:42:31.730Z,75
2019-03-05T12:43:33.141Z,85
2019-03-05T12:44:34.646Z,105
2019-03-05T12:45:36.052Z,105
2019-03-05T12:46:37.448Z,85
2019-03-05T12:47:38.965Z,65
2019-03-05T12:48:40.593Z,60
2019-03-05T12:49:41.846Z,60
2019-03-05T12:50:43.252Z,55
2019-03-05T12:51:44.843Z,55
2019-03-05T12:52:46.394Z,60
2019-03-05T12:53:47.882Z,60
2019-03-05T12:54:49.457Z,60
2019-03-05T12:55:51.486Z,85
2019-03-05T12:56:52.768Z,115
2019-03-05T12:57:54.399Z,110
2019-03-05T12:58:55.798Z,90
2019-03-05T12:59:57.274Z,80
2019-03-05T13:00:58.686Z,105
2019-03-05T13:02:00.106Z,160
2019-03-05T13:03:01.601Z,205
2019-03-05T13:04:03.004Z,190
2019-03-05T13:05:04.416Z,140
2019-03-05T13:06:05.923Z,105
2019-03-05T13:07:07.329Z,85
2019-03-05T13:08:08.733Z,110
2019-03-05T13:09:13.659Z,145
2019-03-05T13:10:11.614Z,200
2019-03-05T13:11:14.236Z,220
2019-03-05T13:12:14.492Z,180
2019-03-05T13:13:16.004Z,225
2019-03-05T13:14:17.403Z,225
2019-03-05T13:15:18.933Z,220
2019-03-05T13:16:20.340Z,195
2019-03-05T13:17:21.742Z,175
2019-03-05T13:18:26.869Z,145
2019-03-05T13:19:24.599Z,135
2019-03-05T13:20:26.436Z,125
2019-03-05T13:21:27.527Z,130
2019-03-05T13:22:29.948Z,130
2019-03-05T13:23:30.297Z,140
2019-03-05T13:24:31.853Z,125
2019-03-05T13:25:33.287Z,145
2019-03-05T13:26:34.701Z,175
2019-03-05T13:27:36.175Z,180
2019-03-05T13:28:40.508Z,130
2019-03-05T13:29:38.949Z,90
2019-03-05T13:30:40.571Z,75
2019-03-05T13:31:42.088Z,85
2019-03-05T13:32:43.222Z,140
2019-03-05T13:33:44.890Z,165
2019-03-05T13:34:46.286Z,190
2019-03-05T13:35:47.689Z,195
2019-03-05T13:36:50.670Z,175
2019-03-05T13:37:50.506Z,170
2019-03-05T13:38:51.904Z,170
2019-03-05T13:39:54.992Z,145
2019-03-05T13:40:54.826Z,95
2019-03-05T13:41:56.225Z,85
2019-03-05T13:42:57.780Z,105
2019-03-05T13:43:59.180Z,85
2019-03-05T13:45:00.658Z,90
2019-03-05T13:46:02.058Z,70
2019-03-05T13:47:04.668Z,70
2019-03-05T13:48:04.918Z,80
2019-03-05T13:49:06.420Z,70
2019-03-05T13:50:08.605Z,65
2019-03-05T13:51:09.298Z,65
2019-03-05T13:52:10.706Z,55
2019-03-05T13:53:15.168Z,60
2019-03-05T13:54:13.544Z,60
2019-03-05T13:55:15.071Z,55
2019-03-05T13:56:16.462Z,60
2019-03-05T13:57:18.601Z,70
2019-03-05T13:58:19.308Z,85
2019-03-05T13:59:20.713Z,85
2019-03-05T14:00:22.262Z,85
2019-03-05T14:01:23.661Z,90
2019-03-05T14:02:25.072Z,95
2019-03-05T14:03:26.597Z,110
2019-03-05T14:04:27.998Z,95
2019-03-05T14:05:29.467Z,75
2019-03-05T14:06:30.868Z,55
2019-03-05T14:07:32.360Z,55
2019-03-05T14:08:33.759Z,55
2019-03-05T14:09:35.185Z,75
2019-03-05T14:10:36.695Z,110
2019-03-05T14:11:38.076Z,105
2019-03-05T14:12:39.496Z,90
2019-03-05T14:13:41.012Z,90
2019-03-05T14:14:42.417Z,95
2019-03-05T14:15:43.891Z,125
2019-03-05T14:16:45.275Z,145
2019-03-05T14:17:46.756Z,135
2019-03-05T14:18:48.163Z,130
2019-03-05T14:19:49.566Z,135
2019-03-05T14:20:51.076Z,105
2019-03-05T14:21:52.474Z,80
2019-03-05T14:22:53.878Z,65
2019-03-05T14:23:55.404Z,60
2019-03-05T14:25:02.155Z,65
2019-03-05T14:25:58.181Z,85
2019-03-05T14:26:59.718Z,105
2019-03-05T14:28:01.124Z,110
2019-03-05T14:29:02.533Z,110
2019-03-05T14:30:04.066Z,125
2019-03-05T14:31:05.464Z,130
2019-03-05T14:32:06.881Z,145
2019-03-05T14:33:08.371Z,145
2019-03-05T14:34:09.777Z,120
2019-03-05T14:35:11.183Z,85
2019-03-05T14:36:12.805Z,60
2019-03-05T14:37:14.181Z,60
2019-03-05T14:38:15.582Z,55
2019-03-05T14:39:17.107Z,75
2019-03-05T14:40:24.106Z,85
2019-03-05T14:41:19.876Z,70
2019-03-05T14:42:21.438Z,55
2019-03-05T14:43:22.825Z,50